Time;durP1;ratioP1;P1;durP2;ratioP2;P2;SDS_P1;SDS_P2;PMS_P1;PMS_P2;Temp;Humidity;BMP_temperature;BMP_pressure;BME280_temperature;BME280_humidity;BME280_pressure;Samples;Min_cycle;Max_cycle;Signal;HPM_P1;HPM_P2
2022/11/19 00:01:02;;;;;;;6.13;2.97;;;1.20;99.90;;;;;;4981587;28;20042;-70
2022/11/19 00:03:30;;;;;;;7.57;3.00;;;1.20;99.90;;;;;;5005165;28;20081;-68
2022/11/19 00:06:05;;;;;;;6.03;2.75;;;1.20;99.90;;;;;;5004476;28;20077;-69
2022/11/19 00:08:31;;;;;;;6.25;2.85;;;1.20;99.90;;;;;;5002633;28;20372;-70
2022/11/19 00:11:03;;;;;;;6.43;3.08;;;1.20;99.90;;;;;;5003041;28;20096;-69
2022/11/19 00:13:29;;;;;;;7.15;3.50;;;1.30;99.90;;;;;;4999871;28;20046;-69
2022/11/19 00:15:55;;;;;;;8.27;3.33;;;1.20;99.90;;;;;;5001451;28;20405;-69
2022/11/19 00:18:21;;;;;;;6.90;2.90;;;1.10;99.90;;;;;;4984057;28;20517;-69
2022/11/19 00:20:48;;;;;;;6.68;3.17;;;1.30;99.90;;;;;;5004166;28;20074;-69
2022/11/19 00:23:14;;;;;;;6.78;3.42;;;1.10;99.90;;;;;;4999832;28;20070;-69
2022/11/19 00:25:39;;;;;;;7.13;3.35;;;1.10;99.90;;;;;;4984120;28;20136;-69
2022/11/19 00:28:05;;;;;;;7.10;3.50;;;1.70;99.90;;;;;;5002188;28;20050;-69
2022/11/19 00:30:31;;;;;;;6.90;3.33;;;1.00;99.90;;;;;;4983120;28;20050;-68
2022/11/19 00:32:56;;;;;;;7.45;3.72;;;1.00;99.90;;;;;;4997589;28;20046;-69
2022/11/19 00:35:22;;;;;;;6.05;3.22;;;1.00;99.90;;;;;;4999777;28;20072;-69
2022/11/19 00:37:48;;;;;;;6.60;3.17;;;1.40;99.90;;;;;;4995139;28;20180;-68
2022/11/19 00:40:13;;;;;;;5.80;3.13;;;0.90;99.90;;;;;;4995521;28;20045;-68
2022/11/19 00:43:45;;;;;;;7.57;3.78;;;0.90;99.90;;;;;;4990426;28;20046;-68
2022/11/19 00:45:25;;;;;;;6.65;3.05;;;1.00;99.90;;;;;;5007607;28;20046;-68
2022/11/19 00:47:51;;;;;;;5.70;3.10;;;0.80;99.90;;;;;;5008615;28;20085;-69
2022/11/19 00:50:18;;;;;;;6.45;3.10;;;0.80;99.90;;;;;;5007757;28;20038;-69
2022/11/19 00:52:43;;;;;;;7.22;3.42;;;0.80;99.90;;;;;;5007598;28;20506;-68
2022/11/19 00:55:09;;;;;;;8.50;3.70;;;0.70;99.90;;;;;;4991121;28;20079;-68
2022/11/19 00:57:35;;;;;;;7.45;3.60;;;0.70;99.90;;;;;;5005976;28;20431;-68
2022/11/19 01:00:00;;;;;;;7.20;3.53;;;0.70;99.90;;;;;;5008743;28;20427;-68
2022/11/19 01:02:26;;;;;;;7.13;3.45;;;0.80;99.90;;;;;;5008355;28;20453;-68
2022/11/19 01:04:52;;;;;;;8.13;3.92;;;0.60;99.90;;;;;;5007916;28;20061;-69
2022/11/19 01:07:18;;;;;;;7.75;3.83;;;0.60;99.90;;;;;;5007510;28;20081;-68
2022/11/19 01:09:46;;;;;;;8.60;3.80;;;0.60;99.90;;;;;;4990864;28;20363;-70
2022/11/19 01:12:11;;;;;;;7.97;3.97;;;0.50;99.90;;;;;;4988783;28;20471;-69
2022/11/19 01:14:37;;;;;;;7.57;3.58;;;0.50;99.90;;;;;;5008441;28;20084;-69
2022/11/19 01:17:03;;;;;;;8.63;4.00;;;0.50;99.90;;;;;;5006649;28;20152;-68
2022/11/19 01:19:28;;;;;;;7.88;3.92;;;0.50;99.90;;;;;;5006153;28;20048;-69
2022/11/19 01:21:57;;;;;;;8.73;3.85;;;0.40;99.90;;;;;;5008631;28;20041;-68
2022/11/19 01:24:22;;;;;;;9.93;4.03;;;0.40;99.90;;;;;;5008811;28;20084;-69
2022/11/19 01:26:48;;;;;;;8.57;3.92;;;0.40;99.90;;;;;;5008443;28;20163;-69
2022/11/19 01:29:14;;;;;;;7.65;3.47;;;0.40;99.90;;;;;;5004638;28;20369;-69
2022/11/19 01:31:39;;;;;;;7.95;4.00;;;0.40;99.90;;;;;;4991387;28;20107;-69
2022/11/19 01:34:05;;;;;;;7.78;4.00;;;0.30;99.90;;;;;;5006132;28;20042;-69
2022/11/19 01:36:31;;;;;;;8.38;3.85;;;0.30;99.90;;;;;;5005851;28;20119;-69
2022/11/19 01:38:57;;;;;;;8.98;4.43;;;0.30;99.90;;;;;;5009184;28;20076;-70
2022/11/19 01:41:28;;;;;;;8.88;4.65;;;0.30;99.90;;;;;;5005005;28;20134;-69
2022/11/19 01:43:57;;;;;;;8.10;3.78;;;0.30;99.90;;;;;;5007474;28;20050;-69
2022/11/19 01:46:37;;;;;;;8.32;3.85;;;0.50;99.90;;;;;;5007680;28;20034;-68
2022/11/19 01:49:13;;;;;;;8.55;3.75;;;0.20;99.90;;;;;;5004419;28;20038;-67
2022/11/19 01:51:57;;;;;;;9.63;3.95;;;0.20;99.90;;;;;;5007297;28;20385;-68
2022/11/19 01:54:36;;;;;;;7.82;3.83;;;0.20;99.90;;;;;;5005439;28;20108;-68
2022/11/19 01:57:05;;;;;;;6.78;3.75;;;0.20;99.90;;;;;;5005422;28;20478;-68
2022/11/19 01:59:31;;;;;;;8.15;3.92;;;0.90;99.90;;;;;;5004959;28;20056;-68
2022/11/19 02:01:57;;;;;;;10.10;4.28;;;0.20;99.90;;;;;;5004684;28;20038;-68
2022/11/19 02:04:24;;;;;;;8.77;4.22;;;0.40;99.90;;;;;;5006046;28;20061;-68
2022/11/19 02:06:52;;;;;;;8.50;4.32;;;0.10;99.90;;;;;;5007076;28;20076;-68
2022/11/19 02:09:18;;;;;;;9.07;3.97;;;0.10;99.90;;;;;;4987525;28;20463;-68
2022/11/19 02:11:53;;;;;;;7.78;4.05;;;0.20;99.90;;;;;;5006916;28;20057;-68
2022/11/19 02:14:36;;;;;;;8.50;4.28;;;1.10;99.90;;;;;;5004963;28;20046;-68
2022/11/19 02:17:15;;;;;;;9.23;4.30;;;-0.60;99.90;;;;;;5005752;28;20108;-70
2022/11/19 02:19:53;;;;;;;7.60;3.90;;;0.10;99.90;;;;;;5003334;28;20049;-68
2022/11/19 02:22:42;;;;;;;9.55;4.55;;;0.10;99.90;;;;;;5004627;28;20046;-68
2022/11/19 02:25:36;;;;;;;8.98;4.10;;;0.10;99.90;;;;;;4986505;28;20046;-69
2022/11/19 02:28:26;;;;;;;8.70;4.10;;;0.10;99.90;;;;;;4999259;28;20192;-69
2022/11/19 02:30:57;;;;;;;8.32;4.15;;;0.10;99.90;;;;;;4997934;28;20080;-68
2022/11/19 02:33:40;;;;;;;9.25;4.53;;;-0.80;99.90;;;;;;5000592;28;20038;-69
2022/11/19 02:36:33;;;;;;;9.15;4.55;;;0.00;99.90;;;;;;5006363;28;20056;-68
2022/11/19 02:39:12;;;;;;;9.52;3.85;;;-0.10;99.90;;;;;;5002806;28;20044;-68
2022/11/19 02:41:52;;;;;;;8.20;3.65;;;-0.10;99.90;;;;;;5006315;28;20069;-69
2022/11/19 02:44:59;;;;;;;9.10;4.13;;;-0.10;99.90;;;;;;5007099;28;20050;-69
2022/11/19 02:47:46;;;;;;;10.13;4.70;;;-0.10;99.90;;;;;;4951169;28;20098;-68
2022/11/19 02:50:16;;;;;;;9.77;4.97;;;-0.10;99.90;;;;;;4949583;28;20395;-68
2022/11/19 02:52:43;;;;;;;8.80;4.93;;;-0.10;99.90;;;;;;4987926;28;20050;-68
2022/11/19 02:55:17;;;;;;;9.43;5.05;;;-0.20;99.90;;;;;;5005592;28;20084;-68
2022/11/19 02:57:47;;;;;;;9.90;4.85;;;-0.20;99.90;;;;;;5003686;28;20048;-68
2022/11/19 03:06:09;;;;;;;8.75;4.53;;;-0.30;99.90;;;;;;5002636;28;20049;-69
2022/11/19 03:08:35;;;;;;;10.10;4.95;;;-0.30;99.90;;;;;;5004451;28;20470;-71
2022/11/19 03:11:15;;;;;;;9.05;5.03;;;0.60;99.90;;;;;;5005859;28;20045;-69
2022/11/19 03:16:43;;;;;;;;;;;-0.40;99.90;;;;;;4962666;28;20052;-68
2022/11/19 03:19:21;;;;;;;10.05;5.05;;;-0.50;99.90;;;;;;5004072;28;19925;-69
2022/11/19 03:21:56;;;;;;;10.60;5.50;;;-0.60;99.90;;;;;;5001526;28;20105;-69
2022/11/19 03:24:40;;;;;;;10.70;5.38;;;-0.50;99.90;;;;;;5006458;28;20034;-69
2022/11/19 03:27:19;;;;;;;11.30;5.38;;;-0.50;99.90;;;;;;5005527;28;20135;-68
2022/11/19 03:29:48;;;;;;;10.10;4.65;;;-0.60;99.90;;;;;;5004707;28;20034;-69
2022/11/19 03:32:20;;;;;;;10.32;4.82;;;-0.60;99.90;;;;;;5004516;28;20042;-69
2022/11/19 03:34:49;;;;;;;10.75;5.30;;;-0.50;99.90;;;;;;5005712;28;20046;-69
2022/11/19 03:37:19;;;;;;;9.90;4.85;;;-0.60;99.90;;;;;;5004098;28;20049;-69
2022/11/19 03:39:46;;;;;;;8.85;4.82;;;-0.10;99.90;;;;;;5004218;28;20140;-69
2022/11/19 03:42:14;;;;;;;9.48;5.00;;;-0.60;99.90;;;;;;4989119;28;20076;-69
2022/11/19 03:44:50;;;;;;;8.43;4.40;;;-0.60;99.90;;;;;;5004430;28;20046;-69
2022/11/19 03:47:25;;;;;;;9.63;4.88;;;-0.70;99.90;;;;;;4985990;28;20049;-69
2022/11/19 03:49:57;;;;;;;9.65;4.97;;;-0.30;99.90;;;;;;5004142;28;20057;-69
2022/11/19 03:52:23;;;;;;;9.52;4.78;;;-0.70;99.90;;;;;;5005735;28;20049;-69
2022/11/19 03:54:49;;;;;;;8.77;4.75;;;-0.70;99.90;;;;;;5005992;28;20041;-69
2022/11/19 03:57:17;;;;;;;8.52;4.40;;;-0.70;99.90;;;;;;4988924;28;20203;-69
2022/11/19 03:59:44;;;;;;;9.50;4.65;;;-0.80;99.90;;;;;;4987661;28;20136;-69
2022/11/19 04:02:11;;;;;;;9.48;4.68;;;-1.00;99.90;;;;;;5004978;28;20077;-69
2022/11/19 04:04:37;;;;;;;8.77;4.72;;;-0.80;99.90;;;;;;5005544;28;20155;-69
2022/11/19 04:07:15;;;;;;;8.35;4.10;;;-0.60;99.90;;;;;;5004309;28;20149;-69
2022/11/19 04:09:41;;;;;;;9.32;4.45;;;-0.80;99.90;;;;;;5002265;28;20133;-68
2022/11/19 04:12:16;;;;;;;8.48;4.30;;;-0.80;99.90;;;;;;5006643;28;20569;-68
2022/11/19 04:14:42;;;;;;;9.93;4.00;;;-0.80;99.90;;;;;;5005462;28;20054;-68
2022/11/19 04:17:08;;;;;;;10.60;4.82;;;-0.80;99.90;;;;;;5007784;28;20113;-68
2022/11/19 04:19:34;;;;;;;7.93;4.40;;;-0.80;99.90;;;;;;5009778;28;20038;-67
2022/11/19 04:21:59;;;;;;;9.63;4.57;;;-0.80;99.90;;;;;;5009530;28;20532;-68
2022/11/19 04:24:25;;;;;;;10.10;4.78;;;-0.90;99.90;;;;;;5009674;28;20440;-68
2022/11/19 04:26:51;;;;;;;9.85;4.63;;;-0.90;99.90;;;;;;4992938;28;20510;-67
2022/11/19 04:29:16;;;;;;;10.80;4.63;;;-0.90;99.90;;;;;;4992247;28;20092;-68
2022/11/19 04:31:42;;;;;;;9.40;4.85;;;-0.90;99.90;;;;;;5009697;28;20710;-67
2022/11/19 04:34:08;;;;;;;9.18;4.82;;;-0.90;99.90;;;;;;4991200;28;20038;-69
2022/11/19 04:36:35;;;;;;;9.13;4.85;;;-0.90;99.90;;;;;;4988372;28;20054;-69
2022/11/19 04:39:00;;;;;;;8.93;5.10;;;-0.90;99.90;;;;;;5009094;28;20086;-68
2022/11/19 04:41:26;;;;;;;9.60;4.88;;;-0.90;99.90;;;;;;5009375;28;20088;-69
2022/11/19 04:43:52;;;;;;;9.18;4.85;;;-1.00;99.90;;;;;;5007378;28;20058;-69
2022/11/19 04:46:18;;;;;;;11.45;5.35;;;-1.00;99.90;;;;;;5009270;28;20050;-68
2022/11/19 04:48:44;;;;;;;10.00;4.85;;;-1.00;99.90;;;;;;5008187;28;20132;-69
2022/11/19 04:51:10;;;;;;;9.35;4.97;;;-1.10;99.90;;;;;;4991071;28;20038;-68
2022/11/19 04:53:35;;;;;;;9.48;4.95;;;-1.10;99.90;;;;;;5009098;28;20110;-69
2022/11/19 04:56:01;;;;;;;9.73;5.00;;;-1.10;99.90;;;;;;5007527;28;20045;-68
2022/11/19 04:58:27;;;;;;;11.15;5.68;;;-1.10;99.90;;;;;;5007970;28;20045;-68
2022/11/19 05:00:52;;;;;;;9.75;5.35;;;-1.20;99.90;;;;;;4975194;28;20466;-68
2022/11/19 05:03:18;;;;;;;10.38;5.72;;;-1.20;99.90;;;;;;5008877;28;20129;-68
2022/11/19 05:05:44;;;;;;;9.85;5.35;;;-1.30;99.90;;;;;;5003151;28;20054;-68
2022/11/19 05:08:11;;;;;;;9.20;5.10;;;-1.10;99.90;;;;;;5008135;28;20124;-68
2022/11/19 05:10:37;;;;;;;9.25;5.32;;;-0.80;99.90;;;;;;5008096;28;20081;-68
2022/11/19 05:13:02;;;;;;;11.65;5.65;;;-1.30;99.90;;;;;;5008631;28;20049;-68
2022/11/19 05:15:28;;;;;;;12.10;6.20;;;-0.90;99.90;;;;;;4991111;28;20076;-69
2022/11/19 05:17:57;;;;;;;11.40;5.82;;;-1.00;99.90;;;;;;5008214;28;20045;-66
2022/11/19 05:20:23;;;;;;;9.38;5.00;;;-1.40;99.90;;;;;;5001638;28;20116;-67
2022/11/19 05:22:48;;;;;;;11.18;6.00;;;-1.40;99.90;;;;;;5005364;28;20042;-67
2022/11/19 05:25:14;;;;;;;11.75;5.57;;;-1.40;99.90;;;;;;5008040;28;20538;-67
2022/11/19 05:27:40;;;;;;;10.10;5.43;;;-1.40;99.90;;;;;;5008020;28;20113;-66
2022/11/19 05:30:06;;;;;;;12.98;5.72;;;-1.40;99.90;;;;;;5009557;28;20042;-67
2022/11/19 05:32:32;;;;;;;10.60;5.22;;;-1.40;99.90;;;;;;5007119;28;20042;-67
2022/11/19 05:34:57;;;;;;;10.73;5.35;;;-1.20;99.90;;;;;;4991021;28;20411;-67
2022/11/19 05:37:23;;;;;;;11.13;5.43;;;-1.20;99.90;;;;;;5007272;28;20275;-67
2022/11/19 05:39:49;;;;;;;11.10;5.40;;;-1.40;99.90;;;;;;5007583;28;20037;-67
2022/11/19 05:42:14;;;;;;;10.52;5.60;;;-1.50;99.90;;;;;;5007844;28;20037;-68
2022/11/19 05:44:40;;;;;;;11.77;5.43;;;-1.50;99.90;;;;;;5008816;28;20072;-68
2022/11/19 05:47:06;;;;;;;11.35;5.43;;;-1.40;99.90;;;;;;5003857;28;20045;-68
2022/11/19 05:49:31;;;;;;;11.50;5.88;;;-1.50;99.90;;;;;;5006663;28;20038;-67
2022/11/19 05:51:57;;;;;;;13.93;5.95;;;-1.40;99.90;;;;;;5007693;28;20049;-67
2022/11/19 05:54:23;;;;;;;9.80;5.25;;;-1.50;99.90;;;;;;4990692;28;20034;-69
2022/11/19 05:56:48;;;;;;;11.95;5.90;;;-1.50;99.90;;;;;;5006922;28;20044;-67
2022/11/19 05:59:14;;;;;;;11.32;5.82;;;-1.50;99.90;;;;;;5004422;28;20112;-66
2022/11/19 06:01:40;;;;;;;9.23;4.90;;;-1.50;99.90;;;;;;5003663;28;20061;-67
2022/11/19 06:04:05;;;;;;;11.02;5.82;;;-1.50;99.90;;;;;;5006021;28;20399;-67
2022/11/19 06:06:31;;;;;;;10.85;5.65;;;-1.50;99.90;;;;;;5008452;28;20389;-67
2022/11/19 06:08:57;;;;;;;10.32;5.32;;;-0.80;99.90;;;;;;5004536;28;20049;-67
2022/11/19 06:14:07;;;;;;;11.15;5.35;;;-1.50;99.90;;;;;;5005907;28;20443;-69
2022/11/19 06:16:32;;;;;;;10.57;5.78;;;-1.60;99.90;;;;;;5007880;28;20042;-68
2022/11/19 06:18:58;;;;;;;10.85;5.60;;;-1.60;99.90;;;;;;5007645;28;20076;-67
2022/11/19 06:21:24;;;;;;;9.55;5.53;;;-1.60;99.90;;;;;;5006697;28;20598;-67
2022/11/19 06:23:49;;;;;;;10.85;5.90;;;-1.60;99.90;;;;;;5006528;28;20491;-67
2022/11/19 06:26:28;;;;;;;9.50;5.00;;;-1.60;99.90;;;;;;5006985;28;20041;-68
2022/11/19 06:28:57;;;;;;;10.82;5.43;;;-1.60;99.90;;;;;;5004123;28;20080;-69
2022/11/19 06:31:23;;;;;;;12.23;5.57;;;-1.60;99.90;;;;;;4989307;28;20034;-68
2022/11/19 06:33:49;;;;;;;9.63;5.25;;;-1.60;99.90;;;;;;5007671;28;20034;-68
2022/11/19 06:36:15;;;;;;;11.20;5.20;;;-1.60;99.90;;;;;;5005830;28;20107;-67
2022/11/19 06:38:40;;;;;;;12.13;5.72;;;-1.60;99.90;;;;;;5004965;28;20050;-67
2022/11/19 06:41:06;;;;;;;12.07;5.45;;;-1.60;99.90;;;;;;5006149;28;20034;-67
2022/11/19 06:43:32;;;;;;;13.80;5.80;;;-1.10;99.90;;;;;;5005695;28;20081;-68
2022/11/19 06:45:58;;;;;;;13.90;6.03;;;-1.70;99.90;;;;;;5005855;28;20034;-68
2022/11/19 06:48:24;;;;;;;12.27;5.60;;;-1.70;99.90;;;;;;5005565;28;20129;-68
2022/11/19 06:50:49;;;;;;;10.23;5.53;;;-1.70;99.90;;;;;;4985875;28;20144;-69
2022/11/19 06:53:15;;;;;;;13.10;5.57;;;-1.70;99.90;;;;;;4997333;28;20076;-69
2022/11/19 06:55:41;;;;;;;11.35;5.47;;;-1.70;99.90;;;;;;4999789;28;20046;-69
2022/11/19 06:58:07;;;;;;;11.07;5.65;;;-1.70;99.90;;;;;;4999116;28;20440;-69
2022/11/19 07:00:33;;;;;;;12.55;5.88;;;-1.70;99.90;;;;;;4986728;28;20042;-69
2022/11/19 07:02:59;;;;;;;11.05;5.55;;;-1.70;99.90;;;;;;4983113;28;20466;-68
2022/11/19 07:05:25;;;;;;;10.07;5.35;;;-1.70;99.90;;;;;;5005219;28;20534;-69
2022/11/19 07:07:51;;;;;;;11.73;6.05;;;-1.70;99.90;;;;;;4999923;28;20038;-69
2022/11/19 07:10:17;;;;;;;10.07;5.93;;;-1.70;99.90;;;;;;5001642;28;20046;-69
2022/11/19 07:12:42;;;;;;;9.18;5.18;;;-1.70;99.90;;;;;;5001263;28;20088;-67
2022/11/19 07:15:09;;;;;;;9.73;5.57;;;-1.80;99.90;;;;;;4999511;28;20037;-69
2022/11/19 07:17:35;;;;;;;10.77;5.85;;;-1.70;99.90;;;;;;5003495;28;20278;-69
2022/11/19 07:20:00;;;;;;;11.75;6.00;;;-1.80;99.90;;;;;;5004507;28;20142;-69
2022/11/19 07:22:26;;;;;;;12.63;6.07;;;-0.90;99.90;;;;;;5001879;28;20095;-69
2022/11/19 07:24:52;;;;;;;14.27;6.03;;;-1.80;99.90;;;;;;5002278;28;20042;-69
2022/11/19 07:27:18;;;;;;;10.77;6.30;;;-1.80;99.90;;;;;;5006599;28;20050;-69
2022/11/19 07:29:43;;;;;;;11.68;5.97;;;-1.80;99.90;;;;;;5006923;28;20073;-69
2022/11/19 07:32:09;;;;;;;10.63;5.78;;;-1.80;99.90;;;;;;5004006;28;20475;-68
2022/11/19 07:34:35;;;;;;;11.35;6.05;;;-0.50;99.90;;;;;;5005926;28;20038;-69
2022/11/19 07:37:00;;;;;;;10.75;5.95;;;-1.80;99.90;;;;;;4984498;28;20046;-69
2022/11/19 07:39:26;;;;;;;11.63;5.93;;;-1.80;99.90;;;;;;4996885;28;20044;-67
2022/11/19 07:44:36;;;;;;;12.30;5.82;;;-1.80;99.90;;;;;;4997587;28;20116;-70
2022/11/19 07:47:02;;;;;;;13.65;6.10;;;-1.80;99.90;;;;;;4988846;28;20042;-69
2022/11/19 07:49:27;;;;;;;11.88;6.13;;;-1.80;99.90;;;;;;4980547;28;20056;-69
2022/11/19 07:51:53;;;;;;;11.75;6.15;;;-1.70;99.90;;;;;;4996594;28;20453;-69
2022/11/19 07:54:19;;;;;;;12.43;6.25;;;-1.70;99.90;;;;;;4996677;28;20507;-69
2022/11/19 07:56:45;;;;;;;11.30;5.97;;;-1.70;99.90;;;;;;4984990;28;20044;-69
2022/11/19 07:59:11;;;;;;;12.93;6.10;;;-1.70;99.90;;;;;;4947376;28;20089;-70
2022/11/19 08:01:37;;;;;;;13.48;6.82;;;-1.70;99.90;;;;;;4972792;28;20050;-69
2022/11/19 08:04:04;;;;;;;11.45;6.20;;;-1.70;99.90;;;;;;4988236;28;20236;-69
2022/11/19 08:06:32;;;;;;;10.32;5.60;;;-1.60;99.90;;;;;;4993132;28;20053;-69
2022/11/19 08:08:58;;;;;;;13.88;7.22;;;-1.60;99.90;;;;;;4982769;28;20594;-69
2022/11/19 08:11:24;;;;;;;12.50;6.50;;;-1.60;99.90;;;;;;4992060;28;20046;-69
2022/11/19 08:13:50;;;;;;;13.48;7.00;;;-1.60;99.90;;;;;;4989761;28;20088;-68
2022/11/19 08:18:11;;;;;;;10.82;6.13;;;-1.60;99.90;;;;;;4990991;28;20567;-71
2022/11/19 08:19:08;;;;;;;13.85;6.20;;;-1.30;99.90;;;;;;4984209;28;20594;-69
2022/11/19 08:21:35;;;;;;;13.43;6.47;;;-1.50;99.90;;;;;;4995521;28;20411;-69
2022/11/19 08:24:01;;;;;;;11.77;6.30;;;-1.50;99.90;;;;;;4985853;28;20438;-69
2022/11/19 08:26:27;;;;;;;28.67;10.15;;;-1.50;99.90;;;;;;4986738;28;20046;-69
2022/11/19 08:28:53;;;;;;;13.48;7.20;;;-1.50;99.90;;;;;;4986358;28;20034;-69
2022/11/19 08:31:19;;;;;;;12.30;6.45;;;-1.40;99.90;;;;;;4984341;28;20046;-69
2022/11/19 08:33:45;;;;;;;12.30;6.07;;;-1.20;99.90;;;;;;4987926;28;20601;-69
2022/11/19 08:36:11;;;;;;;10.60;5.95;;;-1.40;99.90;;;;;;4986100;28;20049;-69
2022/11/19 08:38:37;;;;;;;15.10;7.22;;;-1.40;99.90;;;;;;4993853;28;20042;-69
2022/11/19 08:43:47;;;;;;;14.20;7.03;;;-1.30;99.90;;;;;;4980211;28;20538;-69
2022/11/19 08:46:12;;;;;;;11.13;6.22;;;-1.30;99.90;;;;;;5000661;28;20041;-69
2022/11/19 08:48:38;;;;;;;12.23;6.35;;;-0.80;99.90;;;;;;4997534;28;20700;-69
2022/11/19 08:51:06;;;;;;;14.75;7.13;;;-1.30;99.90;;;;;;5004277;28;20045;-69
2022/11/19 08:53:32;;;;;;;13.05;6.93;;;-1.20;99.90;;;;;;5002359;28;20041;-69
2022/11/19 08:55:58;;;;;;;13.10;6.28;;;-1.00;99.90;;;;;;4991058;28;20053;-69
2022/11/19 08:58:24;;;;;;;11.65;6.82;;;-0.70;99.90;;;;;;4981972;28;20053;-69
2022/11/19 09:00:50;;;;;;;11.85;6.20;;;-1.20;99.90;;;;;;4991857;28;20133;-69
2022/11/19 09:03:16;;;;;;;15.70;7.70;;;-1.10;99.90;;;;;;4990684;28;20388;-69
2022/11/19 09:05:42;;;;;;;14.88;6.88;;;-1.00;99.90;;;;;;4996508;28;20291;-70
2022/11/19 09:08:08;;;;;;;14.23;7.22;;;-1.00;99.90;;;;;;4996152;28;20053;-69
2022/11/19 09:10:36;;;;;;;12.50;7.18;;;-1.00;99.90;;;;;;4986448;28;20037;-68
2022/11/19 09:13:02;;;;;;;10.88;6.40;;;-0.90;99.90;;;;;;4972373;28;20141;-70
2022/11/19 09:15:27;;;;;;;13.85;7.10;;;-0.90;99.90;;;;;;4977234;28;20050;-68
2022/11/19 09:17:53;;;;;;;12.25;6.75;;;-0.60;99.90;;;;;;4994802;28;20040;-69
2022/11/19 09:20:22;;;;;;;14.80;6.93;;;-0.80;99.90;;;;;;4986624;28;20054;-68
2022/11/19 09:22:48;;;;;;;13.27;7.07;;;-0.60;99.90;;;;;;4996497;28;20038;-69
2022/11/19 09:25:13;;;;;;;11.63;6.57;;;-0.70;99.90;;;;;;4991863;28;20046;-68
2022/11/19 09:27:39;;;;;;;13.32;6.63;;;-0.60;99.90;;;;;;4984242;28;20511;-68
2022/11/19 09:30:06;;;;;;;13.38;6.35;;;-0.60;99.90;;;;;;4987133;28;20050;-68
2022/11/19 09:32:32;;;;;;;12.27;6.78;;;-0.50;99.90;;;;;;4990117;28;20072;-68
2022/11/19 09:34:58;;;;;;;12.65;6.60;;;-0.20;99.90;;;;;;4989793;28;20513;-68
2022/11/19 09:37:30;;;;;;;11.35;6.47;;;-0.50;99.90;;;;;;4974376;28;20038;-68
2022/11/19 09:39:56;;;;;;;10.85;6.25;;;-0.40;99.90;;;;;;4990058;28;20081;-69
2022/11/19 09:43:00;;;;;;;10.90;6.03;;;-0.40;99.90;;;;;;4986267;28;21636;-68
2022/11/19 09:45:41;;;;;;;12.27;6.70;;;-0.30;99.90;;;;;;4993837;28;20677;-68
2022/11/19 09:48:17;;;;;;;11.73;6.68;;;-0.30;99.90;;;;;;4986341;28;20052;-68
2022/11/19 09:50:58;;;;;;;12.00;6.25;;;-0.70;99.90;;;;;;4984424;28;20140;-68
2022/11/19 09:53:33;;;;;;;13.88;6.10;;;0.20;99.90;;;;;;4992411;28;20413;-68
2022/11/19 09:55:59;;;;;;;10.85;6.18;;;-0.10;99.90;;;;;;4989273;28;20046;-68
2022/11/19 09:58:42;;;;;;;12.40;6.22;;;-0.10;99.90;;;;;;4987998;28;20458;-68
2022/11/19 10:01:16;;;;;;;12.40;6.57;;;0.40;99.90;;;;;;4982849;28;20076;-68
2022/11/19 10:03:47;;;;;;;13.18;6.32;;;0.20;99.90;;;;;;4986751;28;20061;-68
2022/11/19 10:06:33;;;;;;;12.98;6.93;;;0.10;99.90;;;;;;4984714;28;20046;-68
2022/11/19 10:09:20;;;;;;;10.98;5.57;;;0.10;99.90;;;;;;4989258;28;20049;-68
2022/11/19 10:12:20;;;;;;;11.73;5.95;;;0.10;99.90;;;;;;4987701;28;20103;-68
2022/11/19 10:15:03;;;;;;;9.38;5.05;;;0.20;99.90;;;;;;4982092;28;20250;-68
2022/11/19 10:17:53;;;;;;;12.35;6.40;;;0.20;99.90;;;;;;4982365;28;20046;-67
2022/11/19 10:20:48;;;;;;;11.32;5.45;;;0.30;99.90;;;;;;4988564;28;20466;-67
2022/11/19 10:23:22;;;;;;;9.60;5.50;;;0.30;99.90;;;;;;4988007;28;20058;-67
2022/11/19 10:25:51;;;;;;;11.75;5.90;;;0.40;99.90;;;;;;4990933;28;20049;-67
2022/11/19 10:28:45;;;;;;;11.43;6.18;;;0.40;99.90;;;;;;4972102;28;20135;-67
2022/11/19 10:31:39;;;;;;;12.20;6.00;;;0.50;99.90;;;;;;4977495;28;20049;-68
2022/11/19 10:34:19;;;;;;;10.07;5.35;;;0.50;99.90;;;;;;4971444;28;20436;-67
2022/11/19 10:36:51;;;;;;;8.75;4.78;;;0.60;99.90;;;;;;4993665;28;20053;-68
2022/11/19 10:39:23;;;;;;;10.55;4.63;;;0.60;99.90;;;;;;4989263;28;20045;-67
2022/11/19 10:42:16;;;;;;;9.65;4.68;;;0.70;99.90;;;;;;4991332;28;20467;-67
2022/11/19 10:44:49;;;;;;;8.85;4.95;;;0.70;99.90;;;;;;4983413;28;20438;-68
2022/11/19 10:47:41;;;;;;;10.13;4.80;;;0.70;99.90;;;;;;4989458;28;20531;-69
2022/11/19 10:50:15;;;;;;;9.35;4.80;;;0.80;99.90;;;;;;4989768;28;20314;-68
2022/11/19 10:52:46;;;;;;;10.68;5.18;;;0.80;99.90;;;;;;4969240;28;20054;-69
2022/11/19 10:55:29;;;;;;;10.45;4.97;;;1.10;99.90;;;;;;4985518;28;20038;-69
2022/11/19 10:58:17;;;;;;;9.38;5.03;;;0.80;99.90;;;;;;4989844;28;20094;-69
2022/11/19 11:00:43;;;;;;;9.95;5.15;;;0.90;99.90;;;;;;4986565;28;20462;-67
2022/11/19 11:03:22;;;;;;;11.60;5.43;;;0.90;99.90;;;;;;4973415;28;20046;-68
2022/11/19 11:06:03;;;;;;;8.38;4.78;;;1.00;99.90;;;;;;4991063;28;20124;-67
2022/11/19 11:08:29;;;;;;;8.73;4.40;;;1.00;99.90;;;;;;4991858;28;20316;-67
2022/11/19 11:10:56;;;;;;;8.32;4.80;;;1.00;99.90;;;;;;4990585;28;20042;-68
2022/11/19 11:16:26;;;;;;;9.02;4.80;;;1.10;99.90;;;;;;4983575;28;20407;-69
2022/11/19 11:18:56;;;;;;;7.80;4.43;;;1.20;99.90;;;;;;4981311;28;20046;-69
2022/11/19 11:21:32;;;;;;;8.68;4.60;;;1.20;99.90;;;;;;4984015;28;20431;-68
2022/11/19 11:23:58;;;;;;;21.63;9.60;;;1.30;99.90;;;;;;4980130;28;20451;-69
2022/11/19 11:26:27;;;;;;;10.95;5.55;;;1.30;99.90;;;;;;4986158;28;20037;-69
2022/11/19 11:29:04;;;;;;;9.43;5.32;;;1.30;99.90;;;;;;4985110;28;20045;-69
2022/11/19 11:31:40;;;;;;;9.52;4.78;;;1.20;99.90;;;;;;4972335;28;20049;-69
2022/11/19 11:34:32;;;;;;;8.07;4.60;;;1.40;99.90;;;;;;4991597;28;20526;-70
2022/11/19 11:37:01;;;;;;;8.57;4.63;;;1.60;99.90;;;;;;4984570;28;20084;-69
2022/11/19 11:39:30;;;;;;;8.73;4.35;;;1.50;99.90;;;;;;4981016;28;20796;-69
2022/11/19 11:41:57;;;;;;;9.30;4.53;;;1.50;99.90;;;;;;4992407;28;20507;-69
2022/11/19 11:44:26;;;;;;;9.15;4.57;;;1.50;99.90;;;;;;4975852;28;20056;-69
2022/11/19 11:46:53;;;;;;;8.43;4.55;;;1.60;99.90;;;;;;4986903;28;20440;-69
2022/11/19 11:49:27;;;;;;;8.35;4.40;;;1.60;99.90;;;;;;4989909;28;20335;-69
2022/11/19 11:52:05;;;;;;;8.40;4.25;;;1.60;99.90;;;;;;4991354;28;20463;-69
2022/11/19 11:54:32;;;;;;;10.30;5.03;;;1.70;99.90;;;;;;4997337;28;20177;-67
2022/11/19 11:57:13;;;;;;;8.07;4.28;;;1.70;99.90;;;;;;5000790;28;20305;-68
2022/11/19 11:59:39;;;;;;;;;;;1.80;99.90;;;;;;4997884;28;20430;-68
2022/11/19 12:02:07;;;;;;;9.48;4.60;;;1.80;99.90;;;;;;5001056;28;19921;-68
2022/11/19 12:04:34;;;;;;;8.13;4.57;;;1.90;99.90;;;;;;5000003;28;20156;-69
2022/11/19 12:07:10;;;;;;;8.93;4.53;;;1.90;99.90;;;;;;4999665;28;20419;-69
2022/11/19 12:09:42;;;;;;;7.85;4.32;;;2.00;99.90;;;;;;5000417;28;20457;-70
2022/11/19 12:12:28;;;;;;;8.40;4.10;;;2.00;99.90;;;;;;5003570;28;20507;-69
2022/11/19 12:15:02;;;;;;;7.70;3.85;;;2.10;99.90;;;;;;5002372;28;20510;-68
2022/11/19 12:17:56;;;;;;;7.75;3.55;;;2.10;99.90;;;;;;4969952;28;20052;-67
2022/11/19 12:20:42;;;;;;;7.57;3.60;;;2.10;99.90;;;;;;5001015;28;20041;-67
2022/11/19 12:23:33;;;;;;;7.43;3.67;;;2.20;99.90;;;;;;5002640;28;20061;-68
2022/11/19 12:26:15;;;;;;;8.05;3.65;;;2.20;99.90;;;;;;5002287;28;20521;-68
2022/11/19 12:29:13;;;;;;;;;;;2.50;99.90;;;;;;4992971;28;20458;-68
2022/11/19 12:31:56;;;;;;;6.18;2.97;;;2.30;99.90;;;;;;4967988;28;20202;-69
2022/11/19 12:35:11;;;;;;;9.50;4.05;;;2.30;99.90;;;;;;4986923;28;20038;-67
2022/11/19 12:37:55;;;;;;;8.05;4.13;;;2.30;99.90;;;;;;4927603;28;20058;-68
2022/11/19 12:40:37;;;;;;;6.47;2.92;;;2.40;99.90;;;;;;4995947;28;20388;-67
2022/11/19 12:43:35;;;;;;;9.13;3.88;;;2.40;99.90;;;;;;4997053;28;20053;-67
2022/11/19 12:46:00;;;;;;;7.43;3.42;;;2.40;99.90;;;;;;4983794;28;20093;-67
2022/11/19 12:48:36;;;;;;;8.35;3.92;;;2.40;99.90;;;;;;4996412;28;20165;-68
2022/11/19 12:51:25;;;;;;;6.95;3.35;;;2.40;99.90;;;;;;4987315;28;20046;-68
2022/11/19 12:53:59;;;;;;;6.25;3.20;;;2.50;99.90;;;;;;4991312;28;20125;-68
2022/11/19 12:56:39;;;;;;;7.30;3.33;;;2.50;99.90;;;;;;4996931;28;20481;-68
2022/11/19 12:59:40;;;;;;;7.80;3.83;;;2.50;99.90;;;;;;4980682;28;20066;-68
2022/11/19 13:02:28;;;;;;;8.20;3.80;;;2.60;99.90;;;;;;4972473;28;20042;-68
2022/11/19 13:05:03;;;;;;;7.85;3.22;;;2.60;99.90;;;;;;4998736;28;20062;-68
2022/11/19 13:07:38;;;;;;;7.10;3.40;;;2.60;99.90;;;;;;4995582;28;20048;-68
2022/11/19 13:10:21;;;;;;;7.72;3.33;;;2.60;99.90;;;;;;5001689;28;20415;-68
2022/11/19 13:12:50;;;;;;;7.45;3.67;;;2.60;99.90;;;;;;5001872;28;20073;-69
2022/11/19 13:15:25;;;;;;;7.50;3.72;;;2.60;99.90;;;;;;4998530;28;20148;-69
2022/11/19 13:17:53;;;;;;;7.18;3.42;;;2.60;99.90;;;;;;4999991;28;20064;-69
2022/11/19 13:20:36;;;;;;;7.03;3.08;;;2.60;99.90;;;;;;4981207;28;20045;-69
2022/11/19 13:23:05;;;;;;;7.43;3.25;;;2.70;99.90;;;;;;5003456;28;20582;-69
2022/11/19 13:25:38;;;;;;;6.88;3.22;;;2.60;99.90;;;;;;5005115;28;20507;-69
2022/11/19 13:28:23;;;;;;;7.43;3.33;;;2.60;99.90;;;;;;4998969;28;20057;-69